createdAt,value
2023-04-19T00:02:05.240Z,103252.81
2023-04-19T00:04:34.149Z,103256.41
2023-04-19T00:07:03.134Z,103257.34
2023-04-19T00:09:30.215Z,103257.41
2023-04-19T00:11:57.163Z,103255.66
2023-04-19T00:14:24.191Z,103259.25
2023-04-19T00:16:51.908Z,103258.38
2023-04-19T00:19:18.963Z,103258.38
2023-04-19T00:21:45.855Z,103251.47
2023-04-19T00:24:13.345Z,103256.75
2023-04-19T00:26:40.574Z,103262.09
2023-04-19T00:29:07.542Z,103262.97
2023-04-19T00:31:34.493Z,103252.44
2023-04-19T00:34:01.482Z,103263.94
2023-04-19T00:36:28.569Z,103260.41
2023-04-19T00:38:55.605Z,103252.47
2023-04-19T00:41:22.567Z,103260.47
2023-04-19T00:43:49.625Z,103261.38
2023-04-19T00:46:16.583Z,103263.19
2023-04-19T00:48:43.708Z,103262.38
2023-04-19T00:51:11.187Z,103261.50
2023-04-19T00:53:39.023Z,103263.22
2023-04-19T00:56:06.877Z,103266.78
2023-04-19T00:58:34.090Z,103265.91
2023-04-19T01:01:01.261Z,103262.44
2023-04-19T01:03:29.586Z,103260.66
2023-04-19T01:05:57.475Z,103266.88
2023-04-19T01:08:24.685Z,103257.19
2023-04-19T01:10:51.693Z,103256.34
2023-04-19T01:13:18.644Z,103257.31
2023-04-19T01:15:45.744Z,103256.44
2023-04-19T01:18:14.233Z,103258.19
2023-04-19T01:20:41.414Z,103248.47
2023-04-19T01:23:11.926Z,103259.16
2023-04-19T01:25:39.444Z,103246.81
2023-04-19T01:28:06.849Z,103250.38
2023-04-19T01:30:35.030Z,103252.13
2023-04-19T01:33:02.124Z,103243.34
2023-04-19T01:35:29.199Z,103250.38
2023-04-19T01:37:56.718Z,103253.94
2023-04-19T01:40:27.363Z,103246.00
2023-04-19T01:42:54.345Z,103237.16
2023-04-19T01:45:21.282Z,103236.28
2023-04-19T01:47:48.358Z,103242.50
2023-04-19T01:50:15.269Z,103247.84
2023-04-19T01:52:42.240Z,103242.53
2023-04-19T01:55:09.545Z,103249.66
2023-04-19T01:57:36.435Z,103246.19
2023-04-19T02:00:03.669Z,103240.88
2023-04-19T02:02:30.652Z,103239.13
2023-04-19T02:04:58.293Z,103239.16
2023-04-19T02:07:25.222Z,103242.75
2023-04-19T02:09:52.176Z,103233.91
2023-04-19T02:12:19.111Z,103232.16
2023-04-19T02:14:46.333Z,103229.56
2023-04-19T02:17:13.271Z,103222.53
2023-04-19T02:19:40.220Z,103225.13
2023-04-19T02:22:07.136Z,103227.78
2023-04-19T02:24:34.133Z,103228.72
2023-04-19T02:27:01.207Z,103223.44
2023-04-19T02:29:28.334Z,103223.47
2023-04-19T02:31:55.414Z,103222.56
2023-04-19T02:34:22.338Z,103219.94
2023-04-19T02:36:49.221Z,103220.81
2023-04-19T02:39:17.361Z,103211.22
2023-04-19T02:41:44.254Z,103219.06
2023-04-19T02:44:11.270Z,103228.81
2023-04-19T02:46:38.368Z,103218.19
2023-04-19T02:49:05.315Z,103224.41
2023-04-19T02:51:32.387Z,103216.47
2023-04-19T02:53:59.322Z,103220.94
2023-04-19T02:56:26.458Z,103228.91
2023-04-19T02:58:55.078Z,103226.25
2023-04-19T03:01:22.143Z,103219.19
2023-04-19T03:03:49.241Z,103212.97
2023-04-19T03:06:17.247Z,103215.66
2023-04-19T03:08:44.418Z,103212.13
2023-04-19T03:11:16.809Z,103213.88
2023-04-19T03:13:44.055Z,103217.41
2023-04-19T03:16:11.035Z,103210.34
2023-04-19T03:18:38.045Z,103213.94
2023-04-19T03:21:05.085Z,103214.81
2023-04-19T03:23:32.030Z,103218.34
2023-04-19T03:25:58.998Z,103208.63
2023-04-19T03:28:26.024Z,103218.31
2023-04-19T03:30:53.053Z,103209.50
2023-04-19T03:33:20.167Z,103209.47
2023-04-19T03:35:47.057Z,103205.97
2023-04-19T03:38:14.041Z,103202.44
2023-04-19T03:40:40.993Z,103198.00
2023-04-19T03:43:07.927Z,103204.16
2023-04-19T03:45:34.936Z,103202.44
2023-04-19T03:48:03.001Z,103198.00
2023-04-19T03:50:30.271Z,103205.09
2023-04-19T03:52:57.377Z,103198.09
2023-04-19T03:55:24.332Z,103199.78
2023-04-19T03:57:51.810Z,103193.56
2023-04-19T04:00:18.901Z,103197.09
2023-04-19T04:02:46.119Z,103195.31
2023-04-19T04:05:13.297Z,103197.06
2023-04-19T04:07:40.557Z,103200.63
2023-04-19T04:10:08.268Z,103197.13
2023-04-19T04:12:35.293Z,103193.56
2023-04-19T04:15:02.806Z,103192.69
2023-04-19T04:17:29.781Z,103184.75
2023-04-19T04:19:56.784Z,103188.25
2023-04-19T04:22:23.681Z,103186.47
2023-04-19T04:24:50.595Z,103189.09
2023-04-19T04:27:21.550Z,103184.69
2023-04-19T04:29:49.812Z,103185.59
2023-04-19T04:32:18.450Z,103187.41
2023-04-19T04:34:46.014Z,103189.16
2023-04-19T04:37:14.003Z,103189.13
2023-04-19T04:39:41.106Z,103186.47
2023-04-19T04:42:11.075Z,103182.88
2023-04-19T04:44:39.288Z,103181.16
2023-04-19T04:47:06.296Z,103172.28
2023-04-19T04:49:33.220Z,103171.44
2023-04-19T04:52:00.207Z,103173.22
2023-04-19T04:54:27.200Z,103174.13
2023-04-19T04:56:54.151Z,103175.84
2023-04-19T04:59:21.179Z,103181.81
2023-04-19T05:01:48.115Z,103173.72
2023-04-19T05:04:16.150Z,103164.81
2023-04-19T05:06:44.809Z,103177.88
2023-04-19T05:09:12.132Z,103184.00
2023-04-19T05:11:39.090Z,103183.06
2023-04-19T05:14:06.030Z,103183.00
2023-04-19T05:16:33.396Z,103187.41
2023-04-19T05:19:00.575Z,103175.88
2023-04-19T05:21:27.567Z,103182.88
2023-04-19T05:23:54.654Z,103174.91
2023-04-19T05:26:21.894Z,103172.19
2023-04-19T05:28:48.828Z,103183.63
2023-04-19T05:31:16.058Z,103180.16
2023-04-19T05:33:43.061Z,103190.72
2023-04-19T05:36:10.139Z,103186.09
2023-04-19T05:38:37.078Z,103187.69
2023-04-19T05:41:04.917Z,103193.00
2023-04-19T05:43:32.068Z,103196.47
2023-04-19T05:45:59.039Z,103181.34
2023-04-19T05:48:26.073Z,103185.72
2023-04-19T05:50:55.333Z,103183.88
2023-04-19T05:53:22.513Z,103188.19
2023-04-19T05:55:51.239Z,103186.47
2023-04-19T05:58:19.145Z,103185.63
2023-04-19T06:00:46.511Z,103185.63
2023-04-19T06:03:13.669Z,103176.81
2023-04-19T06:05:41.424Z,103179.22
2023-04-19T06:08:09.799Z,103184.47
2023-04-19T06:10:52.672Z,103182.63
2023-04-19T06:13:23.547Z,103182.75
2023-04-19T06:15:50.753Z,103181.81
2023-04-19T06:18:19.775Z,103182.63
2023-04-19T06:20:47.855Z,103177.38
2023-04-19T06:23:15.444Z,103180.91
2023-04-19T06:25:43.047Z,103179.09
2023-04-19T06:28:10.076Z,103187.84
2023-04-19T06:30:37.324Z,103181.94
2023-04-19T06:33:04.462Z,103185.66
2023-04-19T06:35:32.641Z,103172.53
2023-04-19T06:37:59.769Z,103174.22
2023-04-19T06:40:29.920Z,103187.69
2023-04-19T06:42:57.054Z,103186.44
2023-04-19T06:45:24.044Z,103186.44
2023-04-19T06:47:51.504Z,103179.06
2023-04-19T06:50:18.740Z,103182.91
2023-04-19T06:52:45.933Z,103171.97
2023-04-19T06:55:13.072Z,103173.34
2023-04-19T06:57:40.145Z,103179.34
2023-04-19T07:00:08.404Z,103172.19
2023-04-19T07:02:35.584Z,103170.38
2023-04-19T07:05:02.852Z,103170.25
2023-04-19T07:07:29.987Z,103178.97
2023-04-19T07:09:56.999Z,103171.78
2023-04-19T07:12:24.199Z,103165.44
2023-04-19T07:14:56.650Z,103171.56
2023-04-19T07:17:24.515Z,103174.16
2023-04-19T07:19:51.724Z,103173.16
2023-04-19T07:22:18.783Z,103166.94
2023-04-19T07:24:46.051Z,103178.41
2023-04-19T07:27:14.978Z,103170.38
2023-04-19T07:29:42.170Z,103174.84
2023-04-19T07:32:09.269Z,103175.78
2023-04-19T07:34:39.011Z,103173.91
2023-04-19T07:37:06.160Z,103172.97
2023-04-19T07:39:33.532Z,103172.00
2023-04-19T07:42:02.052Z,103167.56
2023-04-19T07:44:29.070Z,103173.63
2023-04-19T07:46:56.258Z,103160.34
2023-04-19T07:49:23.649Z,103164.69
2023-04-19T07:51:51.067Z,103167.34
2023-04-19T07:54:20.481Z,103153.09
2023-04-19T07:56:47.699Z,103160.06
2023-04-19T07:59:14.691Z,103157.41
2023-04-19T08:01:43.036Z,103156.25
2023-04-19T08:04:10.417Z,103156.97
2023-04-19T08:06:40.106Z,103165.81
2023-04-19T08:09:07.529Z,103161.28
2023-04-19T08:11:34.551Z,103157.69
2023-04-19T08:14:09.176Z,103159.34
2023-04-19T08:19:19.275Z,103155.53
2023-04-19T08:21:46.411Z,103153.59
2023-04-19T08:24:13.955Z,103143.69
2023-04-19T08:26:41.319Z,103151.53
2023-04-19T08:29:08.569Z,103145.25
2023-04-19T08:31:35.806Z,103144.31
2023-04-19T08:34:03.275Z,103136.19
2023-04-19T08:36:39.176Z,103150.34
2023-04-19T08:39:14.705Z,103143.19
2023-04-19T08:41:42.294Z,103156.38
2023-04-19T08:44:12.948Z,103152.78
2023-04-19T08:46:41.396Z,103141.16
2023-04-19T08:49:10.134Z,103131.34
2023-04-19T08:51:39.728Z,103152.47
2023-04-19T08:54:07.971Z,103149.75
2023-04-19T08:56:35.905Z,103149.81
2023-04-19T08:59:17.611Z,103147.09
2023-04-19T09:01:45.782Z,103160.69
2023-04-19T09:06:42.843Z,103151.88
2023-04-19T09:11:50.051Z,103156.22
2023-04-19T09:14:20.361Z,103154.31
2023-04-19T09:16:47.892Z,103141.97
2023-04-19T09:19:24.034Z,103139.25
2023-04-19T09:21:55.056Z,103151.59
2023-04-19T09:27:36.733Z,103148.84
2023-04-19T09:30:05.318Z,103160.31
2023-04-19T09:32:47.657Z,103143.38
2023-04-19T09:35:15.144Z,103141.63
2023-04-19T09:40:25.363Z,103139.19
2023-04-19T09:48:08.094Z,103135.78
2023-04-19T09:50:46.260Z,103136.72
2023-04-19T09:53:22.482Z,103136.53
2023-04-19T09:56:00.490Z,103129.22
2023-04-19T09:58:37.546Z,103137.19
2023-04-19T10:01:16.754Z,103136.22
2023-04-19T10:03:49.980Z,103132.53
2023-04-19T10:08:51.540Z,103134.13
2023-04-19T10:11:22.295Z,103134.06
2023-04-19T10:13:51.149Z,103121.56
2023-04-19T10:16:20.166Z,103132.13
2023-04-19T10:18:51.015Z,103130.34
2023-04-19T10:21:19.785Z,103123.19
2023-04-19T10:23:47.468Z,103126.56
2023-04-19T10:26:14.672Z,103128.22
2023-04-19T10:28:43.096Z,103124.59
2023-04-19T10:31:16.562Z,103114.75
2023-04-19T10:33:43.716Z,103122.50
2023-04-19T10:36:15.060Z,103121.53
2023-04-19T10:38:50.103Z,103124.16
2023-04-19T10:41:18.836Z,103123.09
2023-04-19T10:44:09.649Z,103116.91
2023-04-19T10:46:40.783Z,103118.44
2023-04-19T10:49:13.628Z,103125.50
2023-04-19T10:51:48.206Z,103121.06
2023-04-19T10:54:32.571Z,103120.19
2023-04-19T10:57:07.604Z,103114.78
2023-04-19T10:59:38.587Z,103112.09
2023-04-19T11:02:24.151Z,103117.44
2023-04-19T11:04:51.593Z,103120.09
2023-04-19T11:07:19.263Z,103112.81
2023-04-19T11:09:48.431Z,103117.16
2023-04-19T11:12:17.392Z,103114.34
2023-04-19T11:14:49.067Z,103096.75
2023-04-19T11:17:17.599Z,103117.09
2023-04-19T11:19:54.293Z,103111.69
2023-04-19T11:22:46.803Z,103112.63
2023-04-19T11:25:22.250Z,103114.25
2023-04-19T11:27:51.523Z,103114.16
2023-04-19T11:30:23.175Z,103112.25
2023-04-19T11:32:55.606Z,103111.28
2023-04-19T11:35:25.739Z,103112.06
2023-04-19T11:37:54.927Z,103112.94
2023-04-19T11:40:25.326Z,103107.50
2023-04-19T11:43:11.038Z,103104.84
2023-04-19T11:45:40.099Z,103105.66
2023-04-19T11:48:16.811Z,103111.69
2023-04-19T11:50:46.609Z,103098.34
2023-04-19T11:53:18.325Z,103104.31
2023-04-19T11:55:51.564Z,103106.97
2023-04-19T11:58:34.132Z,103104.47
2023-04-19T12:01:09.115Z,103108.28
2023-04-19T12:03:51.996Z,103098.94
2023-04-19T12:06:29.895Z,103095.50
2023-04-19T12:08:57.503Z,103101.28
2023-04-19T12:11:27.112Z,103101.28
2023-04-19T12:14:14.525Z,103098.50
2023-04-19T12:16:43.123Z,103092.25
2023-04-19T12:19:19.401Z,103096.59
2023-04-19T12:21:47.756Z,103093.00
2023-04-19T12:24:18.553Z,103091.16
2023-04-19T12:26:58.975Z,103098.13
2023-04-19T12:29:28.330Z,103084.97
2023-04-19T12:31:55.625Z,103097.16
2023-04-19T12:34:24.370Z,103081.19
2023-04-19T12:36:51.818Z,103087.31
2023-04-19T12:39:19.162Z,103084.66
2023-04-19T12:41:49.288Z,103090.84
2023-04-19T12:44:16.761Z,103088.13
2023-04-19T12:46:44.075Z,103083.56
2023-04-19T12:49:11.241Z,103087.84
2023-04-19T12:51:38.308Z,103086.97
2023-04-19T12:54:07.993Z,103093.03
2023-04-19T12:56:36.161Z,103089.41
2023-04-19T12:59:03.252Z,103091.19
2023-04-19T13:01:30.500Z,103080.50
2023-04-19T13:03:59.370Z,103080.50
2023-04-19T13:06:26.987Z,103086.75
2023-04-19T13:08:55.057Z,103075.69
2023-04-19T13:11:23.746Z,103083.13
2023-04-19T13:13:52.968Z,103074.75
2023-04-19T13:16:20.339Z,103073.31
2023-04-19T13:18:47.603Z,103073.41
2023-04-19T13:21:14.789Z,103074.84
2023-04-19T13:23:44.092Z,103071.16
2023-04-19T13:26:11.776Z,103066.69
2023-04-19T13:28:39.054Z,103066.59
2023-04-19T13:31:06.669Z,103065.69
2023-04-19T13:33:34.035Z,103070.94
2023-04-19T13:36:01.568Z,103056.63
2023-04-19T13:38:28.624Z,103058.44
2023-04-19T13:40:55.723Z,103067.09
2023-04-19T13:43:22.832Z,103066.22
2023-04-19T13:45:49.902Z,103064.41
2023-04-19T13:48:17.179Z,103062.53
2023-04-19T13:50:44.989Z,103058.03
2023-04-19T13:53:12.706Z,103061.59
2023-04-19T13:55:40.265Z,103054.66
2023-04-19T13:58:08.147Z,103053.69
2023-04-19T14:00:35.668Z,103044.97
2023-04-19T14:03:04.451Z,103050.31
2023-04-19T14:05:31.953Z,103050.22
2023-04-19T14:08:00.741Z,103044.00
2023-04-19T14:10:27.946Z,103040.44
2023-04-19T14:12:55.520Z,103047.91
2023-04-19T14:15:24.148Z,103039.50
2023-04-19T14:17:52.666Z,103029.47
2023-04-19T14:20:19.912Z,103033.69
2023-04-19T14:22:48.514Z,103030.97
2023-04-19T14:25:16.139Z,103038.59
2023-04-19T14:27:44.335Z,103027.56
2023-04-19T14:30:12.252Z,103022.94
2023-04-19T14:32:40.390Z,103022.84
2023-04-19T14:35:09.721Z,103018.41
2023-04-19T14:37:37.479Z,103013.94
2023-04-19T14:40:05.661Z,103017.59
2023-04-19T14:42:33.360Z,103014.94
2023-04-19T14:45:01.756Z,103015.81
2023-04-19T14:47:29.016Z,103013.06
2023-04-19T14:49:56.529Z,103012.63
2023-04-19T14:52:24.870Z,103011.59
2023-04-19T14:54:52.193Z,103011.72
2023-04-19T14:57:19.325Z,103008.97
2023-04-19T14:59:47.101Z,103007.88
2023-04-19T15:02:14.322Z,103005.84
2023-04-19T15:04:41.996Z,103005.06
2023-04-19T15:07:09.570Z,102999.72
2023-04-19T15:09:36.561Z,103007.84
2023-04-19T15:12:03.815Z,102999.81
2023-04-19T15:14:31.119Z,103001.41
2023-04-19T15:16:58.310Z,102994.38
2023-04-19T15:19:25.441Z,102997.25
2023-04-19T15:21:52.613Z,103000.00
2023-04-19T15:24:20.326Z,102989.59
2023-04-19T15:26:47.746Z,102993.81
2023-04-19T15:29:15.326Z,102988.44
2023-04-19T15:31:42.775Z,102992.72
2023-04-19T15:34:10.164Z,102989.00
2023-04-19T15:36:37.395Z,102991.75
2023-04-19T15:39:08.152Z,102991.88
2023-04-19T15:41:35.677Z,102987.47
2023-04-19T15:44:02.877Z,102989.16
2023-04-19T15:46:30.097Z,102983.94
2023-04-19T15:48:57.611Z,102983.94
2023-04-19T15:51:24.660Z,102978.72
2023-04-19T15:53:52.624Z,102972.50
2023-04-19T15:56:19.917Z,102967.19
2023-04-19T15:58:47.688Z,102971.56
2023-04-19T16:01:16.413Z,102970.63
2023-04-19T16:03:46.061Z,102962.28
2023-04-19T16:06:14.179Z,102952.94
2023-04-19T16:08:41.314Z,102962.13
2023-04-19T16:11:08.537Z,102962.50
2023-04-19T16:13:35.994Z,102960.63
2023-04-19T16:16:03.127Z,102965.06
2023-04-19T16:18:30.475Z,102955.59
2023-04-19T16:20:57.692Z,102959.81
2023-04-19T16:23:25.220Z,102969.97
2023-04-19T16:25:53.422Z,102955.75
2023-04-19T16:28:22.039Z,102965.06
2023-04-19T16:30:49.180Z,102962.06
2023-04-19T16:33:16.490Z,102951.59
2023-04-19T16:35:43.611Z,102952.66
2023-04-19T16:38:10.766Z,102957.38
2023-04-19T16:40:37.933Z,102961.19
2023-04-19T16:43:06.680Z,102952.31
2023-04-19T16:45:33.928Z,102943.31
2023-04-19T16:48:01.268Z,102952.94
2023-04-19T16:50:28.370Z,102945.59
2023-04-19T16:52:55.477Z,102954.69
2023-04-19T16:55:22.700Z,102962.66
2023-04-19T16:57:51.374Z,102958.59
2023-04-19T17:00:18.721Z,102962.06
2023-04-19T17:02:46.143Z,102955.41
2023-04-19T17:05:14.657Z,102958.25
2023-04-19T17:07:41.727Z,102946.09
2023-04-19T17:10:09.467Z,102945.06
2023-04-19T17:12:36.787Z,102946.94
2023-04-19T17:15:04.526Z,102942.09
2023-04-19T17:17:31.684Z,102945.88
2023-04-19T17:19:58.955Z,102932.00
2023-04-19T17:22:26.106Z,102927.97
2023-04-19T17:24:54.726Z,102933.00
2023-04-19T17:27:21.869Z,102932.81
2023-04-19T17:29:48.897Z,102928.31
2023-04-19T17:32:16.011Z,102932.44
2023-04-19T17:34:43.061Z,102933.09
2023-04-19T17:37:10.018Z,102922.34
2023-04-19T17:39:37.139Z,102923.88
2023-04-19T17:42:04.179Z,102925.50
2023-04-19T17:44:31.218Z,102927.38
2023-04-19T17:46:58.431Z,102919.38
2023-04-19T17:49:27.396Z,102923.75
2023-04-19T17:51:55.938Z,102925.44
2023-04-19T17:54:23.168Z,102921.06
2023-04-19T17:56:50.652Z,102922.72
2023-04-19T17:59:18.020Z,102917.59
2023-04-19T18:01:45.248Z,102917.41
2023-04-19T18:04:18.142Z,102919.38
2023-04-19T18:06:46.173Z,102918.53
2023-04-19T18:09:16.369Z,102922.03
2023-04-19T18:11:43.679Z,102909.75
2023-04-19T18:14:10.877Z,102928.06
2023-04-19T18:16:38.010Z,102921.75
2023-04-19T18:19:05.104Z,102916.41
2023-04-19T18:21:33.955Z,102923.41
2023-04-19T18:24:02.904Z,102920.88
2023-04-19T18:26:39.728Z,102927.19
2023-04-19T18:29:07.398Z,102926.16
2023-04-19T18:31:34.788Z,102920.88
2023-04-19T18:34:03.258Z,102923.59
2023-04-19T18:36:30.793Z,102919.88
2023-04-19T18:38:58.286Z,102921.56
2023-04-19T18:41:25.666Z,102919.78
2023-04-19T18:44:25.814Z,102916.31
2023-04-19T18:46:42.368Z,102922.53
2023-04-19T18:49:09.578Z,102917.19
2023-04-19T18:51:38.053Z,102923.34
2023-04-19T18:54:05.557Z,102921.66
2023-04-19T18:57:11.005Z,102919.00
2023-04-19T18:59:20.811Z,102919.88
2023-04-19T19:01:49.334Z,102919.00
2023-04-19T19:04:42.659Z,102920.75
2023-04-19T19:07:33.097Z,102913.69
2023-04-19T19:10:01.463Z,102918.09
2023-04-19T19:12:29.572Z,102927.84
2023-04-19T19:14:56.985Z,102924.34
2023-04-19T19:17:28.361Z,102936.50
2023-04-19T19:19:55.790Z,102928.63
2023-04-19T19:22:28.497Z,102936.41
2023-04-19T19:24:57.123Z,102935.63
2023-04-19T19:27:24.976Z,102935.56
2023-04-19T19:29:53.321Z,102943.44
2023-04-19T19:32:21.178Z,102945.19
2023-04-19T19:34:56.725Z,102942.53
2023-04-19T19:37:29.333Z,102938.09
2023-04-19T19:40:03.845Z,102946.91
2023-04-19T19:42:36.936Z,102944.41
2023-04-19T19:45:05.508Z,102945.94
2023-04-19T19:47:37.166Z,102955.75
2023-04-19T19:52:40.371Z,102962.56
2023-04-19T19:55:10.064Z,102954.78
2023-04-19T20:00:43.930Z,102954.59
2023-04-19T20:03:11.813Z,102960.03
2023-04-19T20:05:41.401Z,102960.25
2023-04-19T20:08:18.096Z,102956.53
2023-04-19T20:10:45.791Z,102962.56
2023-04-19T20:13:13.771Z,102967.78
2023-04-19T20:15:42.844Z,102970.16
2023-04-19T20:18:10.192Z,102971.75
2023-04-19T20:20:39.099Z,102973.44
2023-04-19T20:23:08.123Z,102974.97
2023-04-19T20:25:35.692Z,102973.19
2023-04-19T20:28:04.119Z,102973.50
2023-04-19T20:30:32.070Z,102979.69
2023-04-19T20:33:01.371Z,102984.91
2023-04-19T20:35:29.355Z,102978.81
2023-04-19T20:38:02.981Z,102987.63
2023-04-19T20:40:32.437Z,102984.16
2023-04-19T20:43:01.823Z,102987.63
2023-04-19T20:45:29.195Z,102987.75
2023-04-19T20:47:56.997Z,102993.84
2023-04-19T20:50:25.295Z,102990.25
2023-04-19T20:52:53.876Z,102985.06
2023-04-19T20:55:22.514Z,102992.22
2023-04-19T20:57:51.594Z,102983.25
2023-04-19T21:00:19.625Z,102988.81
2023-04-19T21:02:47.004Z,102985.47
2023-04-19T21:05:15.944Z,102982.91
2023-04-19T21:07:43.523Z,102982.94
2023-04-19T21:10:11.929Z,102989.38
2023-04-19T21:12:39.343Z,102985.97
2023-04-19T21:15:07.298Z,102988.69
2023-04-19T21:17:34.795Z,102991.53
2023-04-19T21:20:03.131Z,102985.44
2023-04-19T21:22:30.400Z,102989.06
2023-04-19T21:24:57.426Z,102985.72
2023-04-19T21:27:24.428Z,102992.91
2023-04-19T21:29:51.563Z,102986.75
2023-04-19T21:32:18.988Z,102988.56
2023-04-19T21:34:46.678Z,102990.44
2023-04-19T21:37:13.899Z,102996.72
2023-04-19T21:39:40.916Z,102976.41
2023-04-19T21:42:08.384Z,102980.91
2023-04-19T21:44:35.767Z,102985.47
2023-04-19T21:47:03.130Z,102988.19
2023-04-19T21:49:30.296Z,102991.84
2023-04-19T21:51:57.617Z,102984.84
2023-04-19T21:54:33.230Z,102984.94
2023-04-19T21:57:05.373Z,102989.47
2023-04-19T21:59:35.790Z,102991.34
2023-04-19T22:02:02.995Z,102995.91
2023-04-19T22:04:31.413Z,102988.94
2023-04-19T22:07:02.725Z,102987.31
2023-04-19T22:09:31.355Z,102983.03
2023-04-19T22:11:58.492Z,102990.19
2023-04-19T22:14:25.494Z,102980.66
2023-04-19T22:16:54.280Z,102982.63
2023-04-19T22:19:21.516Z,102986.19
2023-04-19T22:21:48.810Z,102985.34
2023-04-19T22:24:16.293Z,102996.00
2023-04-19T22:26:43.806Z,102996.97
2023-04-19T22:29:10.799Z,102993.69
2023-04-19T22:31:37.813Z,102995.41
2023-04-19T22:34:05.064Z,102999.91
2023-04-19T22:36:32.155Z,102997.34
2023-04-19T22:38:59.132Z,102997.44
2023-04-19T22:41:26.573Z,102995.72
2023-04-19T22:43:54.833Z,102994.84
2023-04-19T22:46:22.004Z,102991.41
2023-04-19T22:48:50.284Z,102994.16
2023-04-19T22:51:20.642Z,102990.69
2023-04-19T22:53:47.653Z,102995.19
2023-04-19T22:56:14.691Z,102988.22
2023-04-19T22:58:41.674Z,102984.69
2023-04-19T23:01:08.745Z,102982.09
2023-04-19T23:03:36.528Z,102983.94
2023-04-19T23:06:04.634Z,102978.63
2023-04-19T23:08:33.723Z,102982.25
2023-04-19T23:11:01.006Z,102983.22
2023-04-19T23:13:28.090Z,102971.69
2023-04-19T23:15:55.880Z,102980.63
2023-04-19T23:18:22.938Z,102976.25
2023-04-19T23:20:49.907Z,102979.91
2023-04-19T23:23:17.153Z,102976.34
2023-04-19T23:25:44.233Z,102979.09
2023-04-19T23:28:12.602Z,102976.44
2023-04-19T23:30:40.183Z,102970.34
2023-04-19T23:33:07.361Z,102963.44
2023-04-19T23:35:34.565Z,102972.28
2023-04-19T23:38:01.662Z,102970.59
2023-04-19T23:40:28.703Z,102969.84
2023-04-19T23:42:55.821Z,102972.44
2023-04-19T23:45:23.086Z,102974.22
2023-04-19T23:47:50.552Z,102967.28
2023-04-19T23:50:17.616Z,102965.53
2023-04-19T23:52:44.780Z,102970.03
2023-04-19T23:55:13.501Z,102962.06
2023-04-19T23:57:40.812Z,102964.78
